sensor_id;sensor_type;location;lat;lon;timestamp;P1;durP1;ratioP1;P2;durP2;ratioP2
9848;SDS011;4963;51.444;6.528;2024-01-06T00:02:01;10.60;;;9.30;;
9848;SDS011;4963;51.444;6.528;2024-01-06T00:04:29;9.20;;;7.80;;
9848;SDS011;4963;51.444;6.528;2024-01-06T00:06:56;11.57;;;9.13;;
9848;SDS011;4963;51.444;6.528;2024-01-06T00:09:23;9.37;;;8.37;;
9848;SDS011;4963;51.444;6.528;2024-01-06T00:11:49;10.10;;;9.10;;
9848;SDS011;4963;51.444;6.528;2024-01-06T00:14:16;11.10;;;9.97;;
9848;SDS011;4963;51.444;6.528;2024-01-06T00:16:43;10.57;;;9.47;;
9848;SDS011;4963;51.444;6.528;2024-01-06T00:19:10;10.17;;;9.13;;
9848;SDS011;4963;51.444;6.528;2024-01-06T00:21:40;10.00;;;9.00;;
9848;SDS011;4963;51.444;6.528;2024-01-06T00:24:07;10.57;;;9.47;;
9848;SDS011;4963;51.444;6.528;2024-01-06T00:26:34;9.83;;;8.83;;
9848;SDS011;4963;51.444;6.528;2024-01-06T00:29:00;11.40;;;10.20;;
9848;SDS011;4963;51.444;6.528;2024-01-06T00:31:27;11.13;;;9.83;;
9848;SDS011;4963;51.444;6.528;2024-01-06T00:33:54;10.63;;;9.53;;
9848;SDS011;4963;51.444;6.528;2024-01-06T00:36:21;11.57;;;9.33;;
9848;SDS011;4963;51.444;6.528;2024-01-06T00:38:49;11.13;;;9.77;;
9848;SDS011;4963;51.444;6.528;2024-01-06T00:41:16;11.97;;;10.30;;
9848;SDS011;4963;51.444;6.528;2024-01-06T00:43:43;10.77;;;9.67;;
9848;SDS011;4963;51.444;6.528;2024-01-06T00:46:10;11.47;;;9.57;;
9848;SDS011;4963;51.444;6.528;2024-01-06T00:48:36;12.40;;;10.20;;
9848;SDS011;4963;51.444;6.528;2024-01-06T00:51:03;11.87;;;10.03;;
9848;SDS011;4963;51.444;6.528;2024-01-06T00:53:30;13.20;;;11.83;;
9848;SDS011;4963;51.444;6.528;2024-01-06T00:55:58;12.00;;;10.47;;
9848;SDS011;4963;51.444;6.528;2024-01-06T00:58:26;11.90;;;10.70;;
9848;SDS011;4963;51.444;6.528;2024-01-06T01:00:52;12.23;;;10.87;;
9848;SDS011;4963;51.444;6.528;2024-01-06T01:03:19;13.73;;;11.23;;
9848;SDS011;4963;51.444;6.528;2024-01-06T01:05:46;12.87;;;11.07;;
9848;SDS011;4963;51.444;6.528;2024-01-06T01:08:13;13.50;;;12.10;;
9848;SDS011;4963;51.444;6.528;2024-01-06T01:10:40;12.27;;;10.70;;
9848;SDS011;4963;51.444;6.528;2024-01-06T01:13:08;12.17;;;10.37;;
9848;SDS011;4963;51.444;6.528;2024-01-06T01:15:35;13.17;;;11.77;;
9848;SDS011;4963;51.444;6.528;2024-01-06T01:18:02;14.20;;;12.17;;
9848;SDS011;4963;51.444;6.528;2024-01-06T01:20:30;15.53;;;13.17;;
9848;SDS011;4963;51.444;6.528;2024-01-06T01:22:57;12.77;;;11.47;;
9848;SDS011;4963;51.444;6.528;2024-01-06T01:25:24;15.03;;;12.30;;
9848;SDS011;4963;51.444;6.528;2024-01-06T01:27:51;13.77;;;12.03;;
9848;SDS011;4963;51.444;6.528;2024-01-06T01:30:19;14.63;;;12.50;;
9848;SDS011;4963;51.444;6.528;2024-01-06T01:32:46;15.87;;;12.63;;
9848;SDS011;4963;51.444;6.528;2024-01-06T01:35:13;16.57;;;14.03;;
9848;SDS011;4963;51.444;6.528;2024-01-06T01:37:40;16.80;;;13.60;;
9848;SDS011;4963;51.444;6.528;2024-01-06T01:40:07;16.47;;;13.80;;
9848;SDS011;4963;51.444;6.528;2024-01-06T01:42:34;18.07;;;14.47;;
9848;SDS011;4963;51.444;6.528;2024-01-06T01:45:02;16.93;;;13.63;;
9848;SDS011;4963;51.444;6.528;2024-01-06T01:47:31;17.87;;;14.23;;
9848;SDS011;4963;51.444;6.528;2024-01-06T01:49:58;18.27;;;14.23;;
9848;SDS011;4963;51.444;6.528;2024-01-06T01:52:25;20.13;;;14.90;;
9848;SDS011;4963;51.444;6.528;2024-01-06T01:54:53;21.07;;;15.53;;
9848;SDS011;4963;51.444;6.528;2024-01-06T01:57:20;17.30;;;13.77;;
9848;SDS011;4963;51.444;6.528;2024-01-06T01:59:49;17.23;;;14.50;;
9848;SDS011;4963;51.444;6.528;2024-01-06T02:02:17;17.67;;;15.40;;
9848;SDS011;4963;51.444;6.528;2024-01-06T02:04:46;20.23;;;15.83;;
9848;SDS011;4963;51.444;6.528;2024-01-06T02:07:13;20.87;;;15.50;;
9848;SDS011;4963;51.444;6.528;2024-01-06T02:09:40;20.90;;;15.90;;
9848;SDS011;4963;51.444;6.528;2024-01-06T02:12:07;19.87;;;15.87;;
9848;SDS011;4963;51.444;6.528;2024-01-06T02:14:34;20.30;;;15.10;;
9848;SDS011;4963;51.444;6.528;2024-01-06T02:17:01;19.93;;;15.40;;
9848;SDS011;4963;51.444;6.528;2024-01-06T02:19:28;19.53;;;15.17;;
9848;SDS011;4963;51.444;6.528;2024-01-06T02:21:57;21.23;;;15.50;;
9848;SDS011;4963;51.444;6.528;2024-01-06T02:24:24;19.70;;;15.27;;
9848;SDS011;4963;51.444;6.528;2024-01-06T02:26:51;21.13;;;16.13;;
9848;SDS011;4963;51.444;6.528;2024-01-06T02:29:18;22.50;;;16.83;;
9848;SDS011;4963;51.444;6.528;2024-01-06T02:31:44;21.43;;;16.90;;
9848;SDS011;4963;51.444;6.528;2024-01-06T02:34:11;22.80;;;17.37;;
9848;SDS011;4963;51.444;6.528;2024-01-06T02:36:38;19.23;;;15.53;;
9848;SDS011;4963;51.444;6.528;2024-01-06T02:39:06;23.17;;;16.50;;
9848;SDS011;4963;51.444;6.528;2024-01-06T02:41:33;20.90;;;15.43;;
9848;SDS011;4963;51.444;6.528;2024-01-06T02:44:00;19.30;;;14.33;;
9848;SDS011;4963;51.444;6.528;2024-01-06T02:46:28;18.83;;;13.80;;
9848;SDS011;4963;51.444;6.528;2024-01-06T02:48:55;17.70;;;12.63;;
9848;SDS011;4963;51.444;6.528;2024-01-06T02:51:22;16.93;;;12.40;;
9848;SDS011;4963;51.444;6.528;2024-01-06T02:53:49;20.33;;;13.53;;
9848;SDS011;4963;51.444;6.528;2024-01-06T02:56:17;16.50;;;12.47;;
9848;SDS011;4963;51.444;6.528;2024-01-06T02:58:44;20.63;;;13.17;;
9848;SDS011;4963;51.444;6.528;2024-01-06T03:01:11;16.10;;;12.03;;
9848;SDS011;4963;51.444;6.528;2024-01-06T03:03:38;15.83;;;11.47;;
9848;SDS011;4963;51.444;6.528;2024-01-06T03:06:05;15.40;;;11.47;;
9848;SDS011;4963;51.444;6.528;2024-01-06T03:08:32;15.10;;;11.50;;
9848;SDS011;4963;51.444;6.528;2024-01-06T03:10:59;14.17;;;9.97;;
9848;SDS011;4963;51.444;6.528;2024-01-06T03:13:29;16.43;;;11.60;;
9848;SDS011;4963;51.444;6.528;2024-01-06T03:15:56;15.00;;;10.70;;
9848;SDS011;4963;51.444;6.528;2024-01-06T03:18:23;14.83;;;10.73;;
9848;SDS011;4963;51.444;6.528;2024-01-06T03:20:50;12.80;;;10.33;;
9848;SDS011;4963;51.444;6.528;2024-01-06T03:23:16;13.60;;;10.27;;
9848;SDS011;4963;51.444;6.528;2024-01-06T03:25:43;13.20;;;9.70;;
9848;SDS011;4963;51.444;6.528;2024-01-06T03:28:10;13.00;;;10.13;;
9848;SDS011;4963;51.444;6.528;2024-01-06T03:30:38;13.40;;;10.17;;
9848;SDS011;4963;51.444;6.528;2024-01-06T03:33:05;12.80;;;9.17;;
9848;SDS011;4963;51.444;6.528;2024-01-06T03:35:33;13.87;;;9.67;;
9848;SDS011;4963;51.444;6.528;2024-01-06T03:37:59;11.57;;;9.00;;
9848;SDS011;4963;51.444;6.528;2024-01-06T03:40:26;13.13;;;9.80;;
9848;SDS011;4963;51.444;6.528;2024-01-06T03:42:53;13.80;;;9.90;;
9848;SDS011;4963;51.444;6.528;2024-01-06T03:45:20;14.30;;;9.50;;
9848;SDS011;4963;51.444;6.528;2024-01-06T03:47:48;14.00;;;9.07;;
9848;SDS011;4963;51.444;6.528;2024-01-06T03:50:15;14.47;;;9.57;;
9848;SDS011;4963;51.444;6.528;2024-01-06T03:52:42;11.67;;;8.57;;
9848;SDS011;4963;51.444;6.528;2024-01-06T03:55:09;12.43;;;9.33;;
9848;SDS011;4963;51.444;6.528;2024-01-06T03:57:35;14.93;;;9.10;;
9848;SDS011;4963;51.444;6.528;2024-01-06T04:00:02;11.97;;;8.83;;
9848;SDS011;4963;51.444;6.528;2024-01-06T04:02:30;14.30;;;10.17;;
9848;SDS011;4963;51.444;6.528;2024-01-06T04:04:59;12.17;;;9.23;;
9848;SDS011;4963;51.444;6.528;2024-01-06T04:07:26;13.10;;;9.77;;
9848;SDS011;4963;51.444;6.528;2024-01-06T04:09:53;13.80;;;9.83;;
9848;SDS011;4963;51.444;6.528;2024-01-06T04:12:19;14.70;;;10.57;;
9848;SDS011;4963;51.444;6.528;2024-01-06T04:14:46;13.43;;;9.83;;
9848;SDS011;4963;51.444;6.528;2024-01-06T04:17:13;13.23;;;9.70;;
9848;SDS011;4963;51.444;6.528;2024-01-06T04:19:40;13.90;;;10.07;;
9848;SDS011;4963;51.444;6.528;2024-01-06T04:22:08;14.00;;;10.07;;
9848;SDS011;4963;51.444;6.528;2024-01-06T04:24:35;13.60;;;10.13;;
9848;SDS011;4963;51.444;6.528;2024-01-06T04:27:02;13.83;;;10.33;;
9848;SDS011;4963;51.444;6.528;2024-01-06T04:29:30;14.30;;;10.63;;
9848;SDS011;4963;51.444;6.528;2024-01-06T04:31:57;14.13;;;9.97;;
9848;SDS011;4963;51.444;6.528;2024-01-06T04:34:23;16.50;;;10.97;;
9848;SDS011;4963;51.444;6.528;2024-01-06T04:36:50;14.10;;;10.20;;
9848;SDS011;4963;51.444;6.528;2024-01-06T04:39:19;17.20;;;12.07;;
9848;SDS011;4963;51.444;6.528;2024-01-06T04:41:46;15.67;;;11.07;;
9848;SDS011;4963;51.444;6.528;2024-01-06T04:44:12;15.13;;;11.23;;
9848;SDS011;4963;51.444;6.528;2024-01-06T04:46:39;15.13;;;11.77;;
9848;SDS011;4963;51.444;6.528;2024-01-06T04:49:06;15.63;;;11.13;;
9848;SDS011;4963;51.444;6.528;2024-01-06T04:51:33;14.13;;;10.53;;
9848;SDS011;4963;51.444;6.528;2024-01-06T04:54:00;14.30;;;10.07;;
9848;SDS011;4963;51.444;6.528;2024-01-06T04:56:28;15.27;;;11.07;;
9848;SDS011;4963;51.444;6.528;2024-01-06T04:58:55;14.97;;;10.90;;
9848;SDS011;4963;51.444;6.528;2024-01-06T05:01:23;14.50;;;10.93;;
9848;SDS011;4963;51.444;6.528;2024-01-06T05:03:50;18.33;;;10.87;;
9848;SDS011;4963;51.444;6.528;2024-01-06T05:06:17;14.30;;;10.30;;
9848;SDS011;4963;51.444;6.528;2024-01-06T05:08:44;15.03;;;11.30;;
9848;SDS011;4963;51.444;6.528;2024-01-06T05:11:11;14.97;;;10.30;;
9848;SDS011;4963;51.444;6.528;2024-01-06T05:13:39;13.57;;;10.10;;
9848;SDS011;4963;51.444;6.528;2024-01-06T05:16:07;14.87;;;10.90;;
9848;SDS011;4963;51.444;6.528;2024-01-06T05:18:34;15.30;;;10.70;;
9848;SDS011;4963;51.444;6.528;2024-01-06T05:21:01;16.27;;;11.43;;
9848;SDS011;4963;51.444;6.528;2024-01-06T05:23:29;14.83;;;11.13;;
9848;SDS011;4963;51.444;6.528;2024-01-06T05:25:56;14.50;;;10.53;;
9848;SDS011;4963;51.444;6.528;2024-01-06T05:28:23;17.03;;;11.63;;
9848;SDS011;4963;51.444;6.528;2024-01-06T05:30:51;14.87;;;10.80;;
9848;SDS011;4963;51.444;6.528;2024-01-06T05:33:18;14.27;;;11.10;;
9848;SDS011;4963;51.444;6.528;2024-01-06T05:35:45;15.30;;;10.83;;
9848;SDS011;4963;51.444;6.528;2024-01-06T05:38:12;14.00;;;10.63;;
9848;SDS011;4963;51.444;6.528;2024-01-06T05:40:39;15.27;;;11.17;;
9848;SDS011;4963;51.444;6.528;2024-01-06T05:43:05;13.73;;;10.13;;
9848;SDS011;4963;51.444;6.528;2024-01-06T05:45:32;15.13;;;10.73;;
9848;SDS011;4963;51.444;6.528;2024-01-06T05:48:00;14.77;;;10.37;;
9848;SDS011;4963;51.444;6.528;2024-01-06T05:50:28;13.50;;;10.57;;
9848;SDS011;4963;51.444;6.528;2024-01-06T05:52:55;15.93;;;10.73;;
9848;SDS011;4963;51.444;6.528;2024-01-06T05:55:22;15.47;;;11.20;;
9848;SDS011;4963;51.444;6.528;2024-01-06T05:57:49;14.93;;;11.13;;
9848;SDS011;4963;51.444;6.528;2024-01-06T06:00:16;16.03;;;11.83;;
9848;SDS011;4963;51.444;6.528;2024-01-06T06:02:43;14.30;;;10.53;;
9848;SDS011;4963;51.444;6.528;2024-01-06T06:05:12;15.70;;;11.33;;
9848;SDS011;4963;51.444;6.528;2024-01-06T06:07:39;15.10;;;11.43;;
9848;SDS011;4963;51.444;6.528;2024-01-06T06:10:06;16.03;;;11.93;;
9848;SDS011;4963;51.444;6.528;2024-01-06T06:12:34;16.43;;;12.20;;
9848;SDS011;4963;51.444;6.528;2024-01-06T06:15:01;15.87;;;11.80;;
9848;SDS011;4963;51.444;6.528;2024-01-06T06:17:29;13.77;;;10.77;;
9848;SDS011;4963;51.444;6.528;2024-01-06T06:19:56;16.23;;;12.03;;
9848;SDS011;4963;51.444;6.528;2024-01-06T06:22:24;15.77;;;11.17;;
9848;SDS011;4963;51.444;6.528;2024-01-06T06:24:55;15.73;;;11.57;;
9848;SDS011;4963;51.444;6.528;2024-01-06T06:27:22;17.27;;;12.43;;
9848;SDS011;4963;51.444;6.528;2024-01-06T06:29:49;17.03;;;12.47;;
9848;SDS011;4963;51.444;6.528;2024-01-06T06:32:16;17.37;;;11.80;;
9848;SDS011;4963;51.444;6.528;2024-01-06T06:34:43;15.70;;;11.23;;
9848;SDS011;4963;51.444;6.528;2024-01-06T06:37:10;16.53;;;12.57;;
9848;SDS011;4963;51.444;6.528;2024-01-06T06:39:38;19.63;;;13.57;;
9848;SDS011;4963;51.444;6.528;2024-01-06T06:42:05;18.00;;;13.07;;
9848;SDS011;4963;51.444;6.528;2024-01-06T06:44:32;17.00;;;12.43;;
9848;SDS011;4963;51.444;6.528;2024-01-06T06:46:59;18.10;;;12.73;;
9848;SDS011;4963;51.444;6.528;2024-01-06T06:49:26;16.80;;;12.77;;
9848;SDS011;4963;51.444;6.528;2024-01-06T06:51:53;18.37;;;12.40;;
9848;SDS011;4963;51.444;6.528;2024-01-06T06:54:21;18.47;;;13.40;;
9848;SDS011;4963;51.444;6.528;2024-01-06T06:56:49;18.37;;;13.10;;
9848;SDS011;4963;51.444;6.528;2024-01-06T06:59:16;18.27;;;12.63;;
9848;SDS011;4963;51.444;6.528;2024-01-06T07:01:43;18.10;;;13.50;;
9848;SDS011;4963;51.444;6.528;2024-01-06T07:04:10;19.03;;;13.80;;
9848;SDS011;4963;51.444;6.528;2024-01-06T07:06:36;18.30;;;12.70;;
9848;SDS011;4963;51.444;6.528;2024-01-06T07:09:03;18.37;;;12.97;;
9848;SDS011;4963;51.444;6.528;2024-01-06T07:11:31;18.80;;;13.87;;
9848;SDS011;4963;51.444;6.528;2024-01-06T07:13:59;20.10;;;14.00;;
9848;SDS011;4963;51.444;6.528;2024-01-06T07:16:26;22.03;;;14.33;;
9848;SDS011;4963;51.444;6.528;2024-01-06T07:18:53;17.97;;;12.13;;
9848;SDS011;4963;51.444;6.528;2024-01-06T07:21:20;17.07;;;12.43;;
9848;SDS011;4963;51.444;6.528;2024-01-06T07:23:48;16.07;;;12.10;;
9848;SDS011;4963;51.444;6.528;2024-01-06T07:26:15;16.40;;;11.10;;
9848;SDS011;4963;51.444;6.528;2024-01-06T07:28:42;16.13;;;11.70;;
9848;SDS011;4963;51.444;6.528;2024-01-06T07:31:11;14.60;;;10.70;;
9848;SDS011;4963;51.444;6.528;2024-01-06T07:33:38;15.67;;;9.97;;
9848;SDS011;4963;51.444;6.528;2024-01-06T07:36:05;15.93;;;10.97;;
9848;SDS011;4963;51.444;6.528;2024-01-06T07:38:32;16.13;;;11.40;;
9848;SDS011;4963;51.444;6.528;2024-01-06T07:40:59;17.67;;;12.53;;
9848;SDS011;4963;51.444;6.528;2024-01-06T07:43:26;19.33;;;12.57;;
9848;SDS011;4963;51.444;6.528;2024-01-06T07:45:53;17.83;;;12.80;;
9848;SDS011;4963;51.444;6.528;2024-01-06T07:48:21;20.37;;;13.70;;
9848;SDS011;4963;51.444;6.528;2024-01-06T07:50:49;22.60;;;13.60;;
9848;SDS011;4963;51.444;6.528;2024-01-06T07:53:16;24.13;;;14.80;;
9848;SDS011;4963;51.444;6.528;2024-01-06T07:55:43;23.13;;;15.23;;
9848;SDS011;4963;51.444;6.528;2024-01-06T07:58:10;26.03;;;16.00;;
9848;SDS011;4963;51.444;6.528;2024-01-06T08:00:37;24.93;;;14.87;;
9848;SDS011;4963;51.444;6.528;2024-01-06T08:03:04;27.03;;;16.17;;
9848;SDS011;4963;51.444;6.528;2024-01-06T08:05:33;26.80;;;15.93;;
9848;SDS011;4963;51.444;6.528;2024-01-06T08:08:00;25.50;;;15.87;;
9848;SDS011;4963;51.444;6.528;2024-01-06T08:10:26;29.60;;;16.63;;
9848;SDS011;4963;51.444;6.528;2024-01-06T08:12:53;30.00;;;17.97;;
9848;SDS011;4963;51.444;6.528;2024-01-06T08:15:20;28.10;;;16.70;;
9848;SDS011;4963;51.444;6.528;2024-01-06T08:17:47;27.67;;;17.83;;
9848;SDS011;4963;51.444;6.528;2024-01-06T08:20:14;25.23;;;16.37;;
9848;SDS011;4963;51.444;6.528;2024-01-06T08:22:42;26.90;;;17.20;;
9848;SDS011;4963;51.444;6.528;2024-01-06T08:25:09;28.40;;;16.83;;
9848;SDS011;4963;51.444;6.528;2024-01-06T08:27:36;28.77;;;17.27;;
9848;SDS011;4963;51.444;6.528;2024-01-06T08:30:03;31.83;;;18.70;;
9848;SDS011;4963;51.444;6.528;2024-01-06T08:32:31;29.37;;;17.93;;
9848;SDS011;4963;51.444;6.528;2024-01-06T08:34:58;28.47;;;18.57;;
9848;SDS011;4963;51.444;6.528;2024-01-06T08:37:25;28.73;;;18.70;;
9848;SDS011;4963;51.444;6.528;2024-01-06T08:39:53;29.97;;;17.43;;
9848;SDS011;4963;51.444;6.528;2024-01-06T08:42:20;30.27;;;19.17;;
9848;SDS011;4963;51.444;6.528;2024-01-06T08:44:48;29.20;;;18.13;;
9848;SDS011;4963;51.444;6.528;2024-01-06T08:47:15;28.87;;;18.17;;
9848;SDS011;4963;51.444;6.528;2024-01-06T08:49:42;30.73;;;17.60;;
9848;SDS011;4963;51.444;6.528;2024-01-06T08:52:09;30.50;;;17.90;;
9848;SDS011;4963;51.444;6.528;2024-01-06T08:54:36;29.93;;;17.47;;
9848;SDS011;4963;51.444;6.528;2024-01-06T08:57:04;33.73;;;18.13;;
9848;SDS011;4963;51.444;6.528;2024-01-06T08:59:31;30.27;;;18.73;;
9848;SDS011;4963;51.444;6.528;2024-01-06T09:01:58;27.43;;;18.30;;
9848;SDS011;4963;51.444;6.528;2024-01-06T09:04:26;30.03;;;19.27;;
9848;SDS011;4963;51.444;6.528;2024-01-06T09:06:53;32.50;;;19.47;;
9848;SDS011;4963;51.444;6.528;2024-01-06T09:09:19;30.73;;;19.70;;
9848;SDS011;4963;51.444;6.528;2024-01-06T09:11:48;29.83;;;19.27;;
9848;SDS011;4963;51.444;6.528;2024-01-06T09:14:16;27.90;;;18.10;;
9848;SDS011;4963;51.444;6.528;2024-01-06T09:16:44;30.10;;;19.10;;
9848;SDS011;4963;51.444;6.528;2024-01-06T09:19:11;30.23;;;19.27;;
9848;SDS011;4963;51.444;6.528;2024-01-06T09:21:38;29.77;;;19.10;;
9848;SDS011;4963;51.444;6.528;2024-01-06T09:24:05;26.57;;;17.37;;
9848;SDS011;4963;51.444;6.528;2024-01-06T09:26:32;30.03;;;17.90;;
9848;SDS011;4963;51.444;6.528;2024-01-06T09:29:00;26.87;;;18.07;;
9848;SDS011;4963;51.444;6.528;2024-01-06T09:31:28;29.37;;;18.37;;
9848;SDS011;4963;51.444;6.528;2024-01-06T09:33:55;26.80;;;16.87;;
9848;SDS011;4963;51.444;6.528;2024-01-06T09:36:26;27.00;;;16.63;;
9848;SDS011;4963;51.444;6.528;2024-01-06T09:38:53;25.53;;;15.67;;
9848;SDS011;4963;51.444;6.528;2024-01-06T09:41:20;22.47;;;15.17;;
9848;SDS011;4963;51.444;6.528;2024-01-06T09:43:47;24.23;;;16.33;;
9848;SDS011;4963;51.444;6.528;2024-01-06T09:46:15;25.57;;;16.33;;
9848;SDS011;4963;51.444;6.528;2024-01-06T09:48:49;30.03;;;16.87;;
9848;SDS011;4963;51.444;6.528;2024-01-06T09:51:19;27.87;;;15.47;;
9848;SDS011;4963;51.444;6.528;2024-01-06T09:53:47;27.60;;;16.43;;
9848;SDS011;4963;51.444;6.528;2024-01-06T09:56:15;26.60;;;16.60;;
9848;SDS011;4963;51.444;6.528;2024-01-06T09:58:43;24.40;;;15.83;;
9848;SDS011;4963;51.444;6.528;2024-01-06T10:01:11;30.10;;;18.50;;
9848;SDS011;4963;51.444;6.528;2024-01-06T10:03:39;32.17;;;19.33;;
9848;SDS011;4963;51.444;6.528;2024-01-06T10:06:07;31.27;;;18.97;;
9848;SDS011;4963;51.444;6.528;2024-01-06T10:08:35;29.30;;;18.73;;
9848;SDS011;4963;51.444;6.528;2024-01-06T10:11:02;27.70;;;17.10;;
9848;SDS011;4963;51.444;6.528;2024-01-06T10:13:31;28.20;;;17.90;;
9848;SDS011;4963;51.444;6.528;2024-01-06T10:15:58;28.60;;;18.13;;
9848;SDS011;4963;51.444;6.528;2024-01-06T10:18:26;32.67;;;19.57;;
9848;SDS011;4963;51.444;6.528;2024-01-06T10:20:55;28.87;;;19.23;;
9848;SDS011;4963;51.444;6.528;2024-01-06T10:23:25;27.03;;;18.73;;
9848;SDS011;4963;51.444;6.528;2024-01-06T10:25:54;30.23;;;19.90;;
9848;SDS011;4963;51.444;6.528;2024-01-06T10:28:22;31.37;;;18.97;;
9848;SDS011;4963;51.444;6.528;2024-01-06T10:30:50;31.07;;;19.30;;
9848;SDS011;4963;51.444;6.528;2024-01-06T10:33:18;27.17;;;16.87;;
9848;SDS011;4963;51.444;6.528;2024-01-06T10:35:46;24.77;;;16.30;;
9848;SDS011;4963;51.444;6.528;2024-01-06T10:38:13;27.63;;;18.47;;
9848;SDS011;4963;51.444;6.528;2024-01-06T10:40:56;25.37;;;17.30;;
9848;SDS011;4963;51.444;6.528;2024-01-06T10:43:25;23.50;;;16.53;;
9848;SDS011;4963;51.444;6.528;2024-01-06T10:45:53;25.13;;;16.87;;
9848;SDS011;4963;51.444;6.528;2024-01-06T10:48:22;24.53;;;16.77;;
9848;SDS011;4963;51.444;6.528;2024-01-06T10:50:51;30.23;;;18.67;;
9848;SDS011;4963;51.444;6.528;2024-01-06T10:53:20;24.10;;;16.80;;
9848;SDS011;4963;51.444;6.528;2024-01-06T10:55:49;30.63;;;17.90;;
9848;SDS011;4963;51.444;6.528;2024-01-06T10:58:18;28.80;;;17.80;;
9848;SDS011;4963;51.444;6.528;2024-01-06T11:00:46;29.47;;;19.00;;
9848;SDS011;4963;51.444;6.528;2024-01-06T11:03:14;25.63;;;17.27;;
9848;SDS011;4963;51.444;6.528;2024-01-06T11:05:41;27.20;;;17.90;;
9848;SDS011;4963;51.444;6.528;2024-01-06T11:08:08;27.63;;;17.90;;
9848;SDS011;4963;51.444;6.528;2024-01-06T11:10:36;24.53;;;16.90;;
9848;SDS011;4963;51.444;6.528;2024-01-06T11:13:08;22.97;;;16.23;;
9848;SDS011;4963;51.444;6.528;2024-01-06T11:15:42;22.77;;;15.20;;
9848;SDS011;4963;51.444;6.528;2024-01-06T11:18:10;21.13;;;15.10;;
9848;SDS011;4963;51.444;6.528;2024-01-06T11:21:16;23.63;;;15.97;;
9848;SDS011;4963;51.444;6.528;2024-01-06T11:23:50;22.93;;;15.30;;
9848;SDS011;4963;51.444;6.528;2024-01-06T11:26:42;23.87;;;15.67;;
9848;SDS011;4963;51.444;6.528;2024-01-06T11:29:10;25.63;;;16.67;;
9848;SDS011;4963;51.444;6.528;2024-01-06T11:31:39;25.47;;;17.50;;
9848;SDS011;4963;51.444;6.528;2024-01-06T11:34:12;25.50;;;16.73;;
9848;SDS011;4963;51.444;6.528;2024-01-06T11:36:42;24.83;;;16.87;;
9848;SDS011;4963;51.444;6.528;2024-01-06T11:42:01;28.43;;;16.23;;
9848;SDS011;4963;51.444;6.528;2024-01-06T11:44:29;26.67;;;17.07;;
9848;SDS011;4963;51.444;6.528;2024-01-06T11:47:00;23.40;;;16.00;;
9848;SDS011;4963;51.444;6.528;2024-01-06T11:49:35;24.33;;;15.57;;
9848;SDS011;4963;51.444;6.528;2024-01-06T11:52:02;24.23;;;16.43;;
9848;SDS011;4963;51.444;6.528;2024-01-06T11:54:31;24.70;;;16.47;;
9848;SDS011;4963;51.444;6.528;2024-01-06T11:56:59;22.77;;;15.47;;
9848;SDS011;4963;51.444;6.528;2024-01-06T11:59:26;26.27;;;16.07;;
9848;SDS011;4963;51.444;6.528;2024-01-06T12:01:53;23.27;;;15.30;;
9848;SDS011;4963;51.444;6.528;2024-01-06T12:04:21;23.53;;;15.50;;
9848;SDS011;4963;51.444;6.528;2024-01-06T12:06:50;26.50;;;16.67;;
9848;SDS011;4963;51.444;6.528;2024-01-06T12:09:17;26.87;;;16.93;;
9848;SDS011;4963;51.444;6.528;2024-01-06T12:11:46;28.70;;;17.73;;
9848;SDS011;4963;51.444;6.528;2024-01-06T12:14:13;25.47;;;17.27;;
9848;SDS011;4963;51.444;6.528;2024-01-06T12:16:40;23.87;;;16.50;;
9848;SDS011;4963;51.444;6.528;2024-01-06T12:19:08;24.23;;;15.77;;
9848;SDS011;4963;51.444;6.528;2024-01-06T12:21:37;23.23;;;15.33;;
9848;SDS011;4963;51.444;6.528;2024-01-06T12:24:15;28.33;;;16.80;;
9848;SDS011;4963;51.444;6.528;2024-01-06T12:26:43;26.23;;;16.53;;
9848;SDS011;4963;51.444;6.528;2024-01-06T12:29:10;24.90;;;15.63;;
9848;SDS011;4963;51.444;6.528;2024-01-06T12:31:38;23.87;;;15.90;;
9848;SDS011;4963;51.444;6.528;2024-01-06T12:34:06;21.53;;;14.83;;
9848;SDS011;4963;51.444;6.528;2024-01-06T12:36:34;26.83;;;15.33;;
9848;SDS011;4963;51.444;6.528;2024-01-06T12:39:02;20.30;;;13.33;;
9848;SDS011;4963;51.444;6.528;2024-01-06T12:41:29;22.80;;;14.43;;
9848;SDS011;4963;51.444;6.528;2024-01-06T12:43:58;22.47;;;14.60;;
9848;SDS011;4963;51.444;6.528;2024-01-06T12:46:25;24.20;;;15.73;;
9848;SDS011;4963;51.444;6.528;2024-01-06T12:48:52;21.20;;;14.57;;
9848;SDS011;4963;51.444;6.528;2024-01-06T12:51:19;25.70;;;17.23;;
9848;SDS011;4963;51.444;6.528;2024-01-06T12:53:46;25.73;;;15.97;;
9848;SDS011;4963;51.444;6.528;2024-01-06T12:56:14;28.20;;;16.87;;
9848;SDS011;4963;51.444;6.528;2024-01-06T12:58:41;28.93;;;17.40;;
9848;SDS011;4963;51.444;6.528;2024-01-06T13:01:08;26.07;;;16.57;;
9848;SDS011;4963;51.444;6.528;2024-01-06T13:03:35;26.87;;;17.43;;
9848;SDS011;4963;51.444;6.528;2024-01-06T13:06:03;26.27;;;16.10;;
9848;SDS011;4963;51.444;6.528;2024-01-06T13:08:31;23.37;;;15.07;;
9848;SDS011;4963;51.444;6.528;2024-01-06T13:10:58;24.47;;;14.73;;
9848;SDS011;4963;51.444;6.528;2024-01-06T13:13:26;25.77;;;14.83;;
9848;SDS011;4963;51.444;6.528;2024-01-06T13:15:53;23.93;;;15.13;;
9848;SDS011;4963;51.444;6.528;2024-01-06T13:18:20;26.53;;;16.20;;
9848;SDS011;4963;51.444;6.528;2024-01-06T13:20:47;22.20;;;14.33;;
9848;SDS011;4963;51.444;6.528;2024-01-06T13:23:15;22.93;;;14.50;;
9848;SDS011;4963;51.444;6.528;2024-01-06T13:25:42;21.00;;;13.67;;
9848;SDS011;4963;51.444;6.528;2024-01-06T13:28:09;26.47;;;14.17;;
9848;SDS011;4963;51.444;6.528;2024-01-06T13:30:38;24.73;;;13.60;;
9848;SDS011;4963;51.444;6.528;2024-01-06T13:33:06;18.90;;;12.37;;
9848;SDS011;4963;51.444;6.528;2024-01-06T13:35:34;20.13;;;13.57;;
9848;SDS011;4963;51.444;6.528;2024-01-06T13:38:01;22.47;;;13.03;;
9848;SDS011;4963;51.444;6.528;2024-01-06T13:40:29;19.93;;;12.53;;
9848;SDS011;4963;51.444;6.528;2024-01-06T13:42:57;19.97;;;12.03;;
9848;SDS011;4963;51.444;6.528;2024-01-06T13:45:24;18.60;;;12.50;;
9848;SDS011;4963;51.444;6.528;2024-01-06T13:47:53;19.10;;;12.97;;
9848;SDS011;4963;51.444;6.528;2024-01-06T13:50:20;19.30;;;13.13;;
9848;SDS011;4963;51.444;6.528;2024-01-06T13:52:47;18.80;;;12.43;;
9848;SDS011;4963;51.444;6.528;2024-01-06T13:55:14;19.00;;;13.40;;
9848;SDS011;4963;51.444;6.528;2024-01-06T13:57:41;20.30;;;13.40;;
9848;SDS011;4963;51.444;6.528;2024-01-06T14:00:08;17.70;;;13.67;;
9848;SDS011;4963;51.444;6.528;2024-01-06T14:02:36;18.60;;;13.50;;
9848;SDS011;4963;51.444;6.528;2024-01-06T14:05:04;20.70;;;13.53;;
9848;SDS011;4963;51.444;6.528;2024-01-06T14:07:33;19.60;;;14.47;;
9848;SDS011;4963;51.444;6.528;2024-01-06T14:10:00;17.93;;;13.70;;
9848;SDS011;4963;51.444;6.528;2024-01-06T14:12:28;21.67;;;15.90;;
9848;SDS011;4963;51.444;6.528;2024-01-06T14:14:56;18.73;;;13.73;;
9848;SDS011;4963;51.444;6.528;2024-01-06T14:17:23;21.80;;;16.33;;
9848;SDS011;4963;51.444;6.528;2024-01-06T14:19:50;21.27;;;15.50;;
9848;SDS011;4963;51.444;6.528;2024-01-06T14:22:20;20.50;;;14.67;;
9848;SDS011;4963;51.444;6.528;2024-01-06T14:24:47;21.57;;;14.33;;
9848;SDS011;4963;51.444;6.528;2024-01-06T14:27:14;21.43;;;15.27;;
9848;SDS011;4963;51.444;6.528;2024-01-06T14:29:42;20.67;;;14.33;;
9848;SDS011;4963;51.444;6.528;2024-01-06T14:32:08;22.30;;;14.67;;
9848;SDS011;4963;51.444;6.528;2024-01-06T14:34:35;20.80;;;14.20;;
9848;SDS011;4963;51.444;6.528;2024-01-06T14:37:02;20.13;;;15.00;;
9848;SDS011;4963;51.444;6.528;2024-01-06T14:39:30;20.37;;;14.53;;
9848;SDS011;4963;51.444;6.528;2024-01-06T14:41:57;19.07;;;14.13;;
9848;SDS011;4963;51.444;6.528;2024-01-06T14:44:24;20.47;;;15.20;;
9848;SDS011;4963;51.444;6.528;2024-01-06T14:46:53;18.80;;;14.00;;
9848;SDS011;4963;51.444;6.528;2024-01-06T14:49:23;22.80;;;16.00;;
9848;SDS011;4963;51.444;6.528;2024-01-06T14:51:50;21.67;;;15.87;;
9848;SDS011;4963;51.444;6.528;2024-01-06T14:54:17;21.17;;;14.73;;
9848;SDS011;4963;51.444;6.528;2024-01-06T14:56:45;21.93;;;15.07;;